Time;durP1;ratioP1;P1;durP2;ratioP2;P2;SDS_P1;SDS_P2;PMS_P1;PMS_P2;Temp;Humidity;BMP_temperature;BMP_pressure;BME280_temperature;BME280_humidity;BME280_pressure;Samples;Min_cycle;Max_cycle;Signal;HPM_P1;HPM_P2
2022/05/07 03:00:54;;;;;;;0.70;0.70;;;13.00;72.40;;;;;;5982709;23;21282;-79
2022/05/07 03:03:21;;;;;;;0.70;0.70;;;13.10;71.90;;;;;;5007761;28;20436;-80
2022/05/07 03:05:47;;;;;;;0.70;0.70;;;13.10;72.00;;;;;;5005980;28;20453;-79
2022/05/07 03:08:14;;;;;;;0.70;0.70;;;13.10;71.80;;;;;;4998445;28;20452;-80
2022/05/07 03:10:41;;;;;;;0.70;0.70;;;13.20;71.50;;;;;;4996788;28;20525;-80
2022/05/07 03:13:08;;;;;;;0.83;0.83;;;13.20;71.40;;;;;;4996495;28;20445;-78
2022/05/07 03:18:02;;;;;;;0.87;0.87;;;13.30;71.20;;;;;;5097957;23;21019;-68
2022/05/07 03:20:28;;;;;;;0.70;0.70;;;13.20;71.30;;;;;;4996126;28;20496;-68
2022/05/07 03:22:55;;;;;;;0.70;0.60;;;13.20;71.20;;;;;;4996689;28;20777;-69
2022/05/07 03:25:22;;;;;;;0.80;0.70;;;13.20;71.30;;;;;;4996231;28;20456;-69
2022/05/07 03:27:48;;;;;;;0.70;0.70;;;13.20;71.30;;;;;;4996216;28;20477;-69
2022/05/07 03:30:15;;;;;;;0.70;0.70;;;13.20;71.20;;;;;;4996274;28;20499;-69
2022/05/07 03:32:42;;;;;;;0.70;0.63;;;13.20;71.50;;;;;;4996123;28;20440;-69
2022/05/07 03:35:10;;;;;;;0.70;0.70;;;13.20;71.50;;;;;;4995994;28;20465;-69
2022/05/07 03:37:37;;;;;;;0.70;0.70;;;13.20;71.50;;;;;;4995718;28;20457;-69
2022/05/07 03:40:04;;;;;;;1.13;0.80;;;13.20;71.50;;;;;;4994850;28;20999;-69
2022/05/07 03:42:33;;;;;;;0.70;0.70;;;13.20;71.60;;;;;;4995267;28;20456;-69
2022/05/07 03:45:00;;;;;;;0.70;0.60;;;13.20;71.60;;;;;;4996218;28;20647;-69
2022/05/07 03:47:27;;;;;;;0.70;0.70;;;13.20;71.50;;;;;;4994595;28;20469;-69
2022/05/07 03:49:53;;;;;;;0.70;0.60;;;13.20;71.50;;;;;;4994866;28;20441;-69
2022/05/07 03:55:06;;;;;;;0.80;0.70;;;13.20;71.60;;;;;;4994986;28;20843;-68
2022/05/07 03:57:33;;;;;;;0.63;0.63;;;13.20;71.70;;;;;;4995278;28;20469;-69
2022/05/07 04:00:00;;;;;;;0.80;0.70;;;13.20;71.70;;;;;;5010292;28;20485;-68
2022/05/07 04:02:27;;;;;;;0.73;0.70;;;13.20;71.60;;;;;;5004045;28;20453;-68
2022/05/07 04:04:54;;;;;;;1.10;0.70;;;13.20;71.50;;;;;;4996150;28;20453;-69
2022/05/07 04:07:22;;;;;;;0.87;0.77;;;13.20;71.60;;;;;;4996034;28;20461;-69
2022/05/07 04:09:51;;;;;;;0.87;0.70;;;13.20;71.60;;;;;;4995895;28;20445;-69
2022/05/07 04:12:18;;;;;;;0.70;0.70;;;13.20;71.70;;;;;;4995486;28;20445;-68
2022/05/07 04:14:45;;;;;;;0.80;0.80;;;13.10;71.80;;;;;;4995578;28;20909;-69
2022/05/07 04:17:11;;;;;;;0.80;0.80;;;13.10;71.80;;;;;;4995242;28;20507;-69
2022/05/07 04:19:38;;;;;;;0.70;0.63;;;13.10;71.60;;;;;;4995141;28;20831;-69
2022/05/07 04:22:05;;;;;;;0.70;0.60;;;13.00;71.50;;;;;;4995141;28;20507;-69
2022/05/07 04:24:34;;;;;;;0.70;0.70;;;13.00;71.70;;;;;;4994725;28;20445;-69
2022/05/07 04:27:01;;;;;;;0.80;0.80;;;13.00;71.60;;;;;;4994689;28;20476;-69
2022/05/07 04:29:28;;;;;;;0.77;0.77;;;13.00;71.80;;;;;;4995016;28;20449;-69
2022/05/07 04:31:54;;;;;;;0.80;0.80;;;13.00;71.70;;;;;;4994557;28;20456;-69
2022/05/07 04:34:22;;;;;;;0.80;0.80;;;13.00;71.50;;;;;;4995020;28;20862;-69
2022/05/07 04:36:48;;;;;;;0.70;0.70;;;12.90;71.40;;;;;;4994411;28;20559;-69
2022/05/07 04:39:15;;;;;;;0.73;0.73;;;12.90;71.30;;;;;;4995120;28;20516;-69
2022/05/07 04:41:43;;;;;;;0.70;0.70;;;12.90;71.80;;;;;;4994113;28;20874;-69
2022/05/07 04:44:10;;;;;;;0.70;0.70;;;13.00;72.30;;;;;;4994261;28;20657;-69
2022/05/07 04:46:36;;;;;;;0.90;0.67;;;13.10;72.60;;;;;;4994150;28;20600;-69
2022/05/07 04:49:05;;;;;;;0.70;0.70;;;13.20;72.80;;;;;;4994217;28;20445;-69
2022/05/07 04:51:31;;;;;;;0.73;0.73;;;13.30;72.90;;;;;;4994007;28;20457;-69
2022/05/07 04:53:58;;;;;;;0.80;0.80;;;13.40;72.90;;;;;;4994035;28;20452;-69
2022/05/07 04:56:25;;;;;;;1.00;0.90;;;13.50;72.50;;;;;;4994009;28;20485;-69
2022/05/07 04:58:53;;;;;;;0.80;0.80;;;13.60;72.00;;;;;;4993470;28;20903;-69
2022/05/07 05:01:20;;;;;;;0.70;0.67;;;13.70;72.20;;;;;;4993974;28;20461;-69
2022/05/07 05:03:46;;;;;;;0.70;0.70;;;13.80;72.20;;;;;;4993998;28;20449;-69
2022/05/07 05:06:14;;;;;;;0.70;0.70;;;13.90;71.60;;;;;;4993536;28;20469;-69
2022/05/07 05:08:40;;;;;;;0.80;0.80;;;14.00;71.20;;;;;;4993997;28;20445;-69
2022/05/07 05:11:07;;;;;;;0.80;0.80;;;14.10;70.90;;;;;;4993903;28;20453;-69
2022/05/07 05:13:33;;;;;;;0.70;0.70;;;14.20;70.50;;;;;;4993791;28;20444;-69
2022/05/07 05:16:01;;;;;;;0.70;0.70;;;14.30;70.40;;;;;;4993492;28;20531;-69
2022/05/07 05:18:28;;;;;;;1.00;0.70;;;14.40;70.30;;;;;;4993724;28;20863;-69
2022/05/07 05:20:55;;;;;;;0.80;0.80;;;14.40;69.70;;;;;;4993449;28;20507;-69
2022/05/07 05:23:22;;;;;;;0.70;0.70;;;14.40;69.70;;;;;;4993647;28;20457;-69
2022/05/07 05:25:49;;;;;;;0.80;0.80;;;14.50;69.50;;;;;;4993640;28;20507;-69
2022/05/07 05:28:16;;;;;;;0.77;0.77;;;14.60;69.50;;;;;;4993344;28;21007;-69
2022/05/07 05:30:42;;;;;;;0.80;0.70;;;14.80;69.40;;;;;;4993609;28;20549;-69
2022/05/07 05:33:10;;;;;;;0.80;0.80;;;14.90;69.30;;;;;;4994246;28;20456;-69
2022/05/07 05:35:38;;;;;;;0.80;0.80;;;15.10;68.00;;;;;;4993756;28;20460;-69
2022/05/07 05:38:05;;;;;;;0.80;0.80;;;15.20;67.30;;;;;;4993485;28;20457;-69
2022/05/07 05:40:31;;;;;;;0.93;0.93;;;15.20;67.00;;;;;;4993486;28;20492;-69
2022/05/07 05:42:58;;;;;;;0.70;0.70;;;15.00;67.60;;;;;;4993491;28;20464;-69
2022/05/07 05:45:25;;;;;;;0.80;0.80;;;14.90;68.20;;;;;;4993466;28;20449;-69
2022/05/07 05:47:51;;;;;;;0.80;0.80;;;14.90;68.90;;;;;;4993450;28;20474;-67
2022/05/07 05:50:19;;;;;;;0.90;0.90;;;15.00;68.30;;;;;;4993200;28;20940;-69
2022/05/07 05:52:46;;;;;;;1.50;0.90;;;15.10;69.00;;;;;;4993399;28;20511;-69
2022/05/07 05:55:13;;;;;;;0.90;0.90;;;15.10;68.10;;;;;;4993416;28;20777;-69
2022/05/07 05:57:40;;;;;;;0.70;0.70;;;15.20;68.90;;;;;;4993356;28;20614;-69
2022/05/07 06:00:08;;;;;;;1.00;0.90;;;15.50;68.70;;;;;;4992982;28;20476;-69
2022/05/07 06:02:34;;;;;;;1.07;0.90;;;15.60;67.80;;;;;;4993014;28;20945;-69
2022/05/07 06:05:01;;;;;;;0.90;0.90;;;15.50;68.00;;;;;;4993329;28;20444;-69
2022/05/07 06:07:29;;;;;;;0.90;0.90;;;15.60;68.80;;;;;;4993225;28;20535;-69
2022/05/07 06:09:56;;;;;;;0.80;0.80;;;15.60;67.90;;;;;;4994771;28;20452;-69
2022/05/07 06:12:22;;;;;;;1.27;0.90;;;15.70;69.40;;;;;;4996640;28;20515;-69
2022/05/07 06:14:49;;;;;;;0.90;0.90;;;15.80;68.40;;;;;;4997038;28;20857;-69
2022/05/07 06:17:15;;;;;;;0.70;0.70;;;15.90;68.80;;;;;;4996969;28;20496;-69
2022/05/07 06:19:42;;;;;;;0.80;0.80;;;16.00;67.90;;;;;;4996874;28;20524;-69
2022/05/07 06:22:09;;;;;;;0.93;0.93;;;16.00;68.70;;;;;;4996865;28;20444;-68
2022/05/07 06:27:31;;;;;;;1.10;1.10;;;16.40;68.00;;;;;;4996558;28;20452;-69
2022/05/07 06:29:58;;;;;;;0.80;0.80;;;16.60;67.50;;;;;;4996426;28;20531;-69
2022/05/07 06:32:24;;;;;;;1.03;0.93;;;16.70;66.90;;;;;;4996404;28;20449;-69
2022/05/07 06:34:51;;;;;;;1.10;1.00;;;16.70;67.70;;;;;;4996325;28;20848;-69
2022/05/07 06:37:18;;;;;;;1.20;1.10;;;16.70;67.40;;;;;;4996201;28;20883;-69
2022/05/07 06:39:46;;;;;;;0.90;0.90;;;16.80;67.50;;;;;;4996570;28;20532;-69
2022/05/07 06:42:12;;;;;;;1.00;1.00;;;16.90;67.60;;;;;;4996448;28;20460;-69
2022/05/07 06:44:39;;;;;;;1.00;1.00;;;17.00;66.00;;;;;;4996424;28;20455;-69
2022/05/07 06:47:06;;;;;;;1.00;1.00;;;17.10;64.50;;;;;;4996414;28;20835;-70
2022/05/07 06:49:32;;;;;;;1.00;1.00;;;17.20;64.10;;;;;;4996084;28;20453;-69
2022/05/07 06:51:59;;;;;;;0.80;0.80;;;17.50;64.80;;;;;;4996372;28;20499;-69
2022/05/07 06:54:25;;;;;;;0.90;0.90;;;17.50;63.80;;;;;;4996355;28;20527;-69
2022/05/07 06:56:53;;;;;;;0.80;0.80;;;17.50;63.80;;;;;;4996141;28;20519;-69
2022/05/07 06:59:20;;;;;;;1.03;1.00;;;17.50;63.00;;;;;;4995909;28;20849;-70
2022/05/07 07:01:47;;;;;;;1.00;1.00;;;17.60;63.30;;;;;;4995751;28;20944;-70
2022/05/07 07:04:14;;;;;;;0.90;0.90;;;17.80;63.50;;;;;;4995982;28;20449;-70
2022/05/07 07:06:41;;;;;;;1.00;1.00;;;18.30;63.70;;;;;;4996018;28;20523;-70
2022/05/07 07:09:08;;;;;;;0.90;0.90;;;18.10;62.80;;;;;;4996040;28;20488;-70
2022/05/07 07:11:35;;;;;;;0.90;0.90;;;18.30;63.20;;;;;;4996381;28;20457;-70
2022/05/07 07:14:03;;;;;;;1.00;0.87;;;18.50;63.10;;;;;;4996483;28;20457;-70
2022/05/07 07:16:30;;;;;;;0.93;0.93;;;18.70;60.90;;;;;;4995532;28;20485;-70
2022/05/07 07:18:57;;;;;;;0.83;0.83;;;19.20;61.40;;;;;;4995669;28;20499;-70
2022/05/07 07:21:24;;;;;;;0.90;0.90;;;19.60;58.10;;;;;;4995055;28;20491;-69
2022/05/07 07:23:51;;;;;;;1.00;1.00;;;20.00;60.60;;;;;;4995579;28;20503;-69
2022/05/07 07:26:18;;;;;;;1.20;1.10;;;20.10;60.10;;;;;;4995594;28;20523;-69
2022/05/07 07:28:45;;;;;;;1.37;0.90;;;20.30;60.60;;;;;;4995316;28;20941;-70
2022/05/07 07:31:13;;;;;;;1.07;1.00;;;20.30;60.30;;;;;;4995595;28;20540;-70
2022/05/07 07:33:41;;;;;;;1.10;1.10;;;20.50;59.00;;;;;;4995540;28;20449;-70
2022/05/07 07:36:09;;;;;;;1.03;1.03;;;20.30;60.70;;;;;;4995537;28;20472;-70
2022/05/07 07:38:37;;;;;;;1.20;1.10;;;20.10;60.80;;;;;;4995627;28;20449;-70
2022/05/07 07:41:04;;;;;;;1.10;1.10;;;19.70;61.10;;;;;;4995326;28;20491;-69
2022/05/07 07:43:31;;;;;;;1.53;1.40;;;19.40;62.60;;;;;;4994955;28;20881;-70
2022/05/07 07:48:44;;;;;;;1.03;1.03;;;19.20;64.30;;;;;;4995597;28;20409;-70
2022/05/07 07:51:11;;;;;;;1.27;1.17;;;19.10;63.40;;;;;;4995015;28;20449;-70
2022/05/07 07:53:39;;;;;;;1.20;1.20;;;19.30;63.70;;;;;;4994999;28;20527;-70
2022/05/07 07:56:07;;;;;;;1.27;1.27;;;19.20;63.50;;;;;;4994657;28;20984;-70
2022/05/07 07:58:34;;;;;;;1.00;1.00;;;19.20;65.10;;;;;;4994821;28;20485;-70
2022/05/07 08:01:01;;;;;;;0.93;0.93;;;19.50;65.20;;;;;;4994812;28;20905;-69
2022/05/07 08:03:28;;;;;;;1.10;1.10;;;19.60;63.50;;;;;;4994830;28;20457;-70
2022/05/07 08:05:57;;;;;;;1.10;0.90;;;19.50;63.90;;;;;;4995461;28;20449;-70
2022/05/07 08:13:54;;;;;;;1.10;1.00;;;20.50;62.20;;;;;;4994668;28;20436;-70
2022/05/07 08:16:21;;;;;;;0.93;0.93;;;21.00;59.50;;;;;;4994069;28;20575;-70
2022/05/07 08:18:49;;;;;;;1.00;1.00;;;21.10;59.00;;;;;;4994323;28;20496;-70
2022/05/07 08:21:17;;;;;;;1.10;1.10;;;21.20;58.90;;;;;;4994733;28;20495;-69
2022/05/07 08:23:44;;;;;;;1.20;1.10;;;21.40;59.80;;;;;;4994768;28;20452;-69
2022/05/07 08:26:11;;;;;;;1.10;1.00;;;21.10;59.20;;;;;;4994482;28;20468;-69
2022/05/07 08:28:40;;;;;;;1.23;1.20;;;21.10;57.90;;;;;;4994462;28;20523;-73
2022/05/07 08:31:07;;;;;;;1.10;1.00;;;20.80;59.80;;;;;;4994766;28;20477;-74
2022/05/07 08:33:35;;;;;;;1.00;1.00;;;20.70;59.20;;;;;;4993665;28;20457;-73
2022/05/07 08:36:02;;;;;;;1.33;1.03;;;20.50;59.70;;;;;;4994194;28;20473;-73
2022/05/07 08:38:30;;;;;;;0.90;0.90;;;20.70;62.30;;;;;;4994954;28;20453;-73
2022/05/07 08:40:59;;;;;;;1.13;1.13;;;21.00;59.50;;;;;;4994462;28;20960;-73
2022/05/07 08:43:25;;;;;;;1.23;1.17;;;20.90;61.10;;;;;;4994666;28;20493;-73
2022/05/07 08:45:52;;;;;;;1.00;1.00;;;21.10;59.70;;;;;;4994377;28;20449;-73
2022/05/07 08:48:19;;;;;;;1.00;1.00;;;21.00;59.50;;;;;;4994310;28;20452;-73
2022/05/07 08:50:47;;;;;;;1.20;1.10;;;21.20;58.40;;;;;;4994445;28;20449;-73
2022/05/07 08:53:14;;;;;;;0.90;0.90;;;21.50;57.70;;;;;;4994298;28;20468;-73
2022/05/07 08:55:42;;;;;;;0.90;0.90;;;21.40;56.70;;;;;;4994094;28;20457;-73
2022/05/07 08:58:10;;;;;;;0.90;0.90;;;21.70;56.80;;;;;;4994368;28;20460;-73
2022/05/07 09:00:38;;;;;;;1.10;1.00;;;21.90;55.50;;;;;;4994109;28;20488;-73
2022/05/07 09:03:04;;;;;;;1.10;1.10;;;21.90;56.20;;;;;;4994300;28;20508;-73
2022/05/07 09:05:34;;;;;;;0.80;0.80;;;22.10;54.30;;;;;;4994231;28;20449;-73
2022/05/07 09:08:02;;;;;;;1.03;0.80;;;22.40;55.50;;;;;;4994321;28;20547;-73
2022/05/07 09:10:30;;;;;;;0.83;0.83;;;22.50;53.90;;;;;;4994148;28;20445;-71
2022/05/07 09:13:10;;;;;;;0.87;0.87;;;22.80;54.20;;;;;;4993601;28;20857;-72
2022/05/07 09:15:36;;;;;;;0.90;0.80;;;22.80;52.10;;;;;;4993594;28;20900;-72
2022/05/07 09:18:13;;;;;;;0.80;0.70;;;22.70;51.80;;;;;;5114497;23;21070;-74
2022/05/07 09:20:40;;;;;;;0.90;0.73;;;22.80;52.00;;;;;;4995791;28;20567;-77
2022/05/07 09:23:06;;;;;;;0.80;0.80;;;22.80;50.00;;;;;;4993851;28;20457;-77
2022/05/07 09:25:34;;;;;;;0.90;0.90;;;22.80;51.40;;;;;;4994122;28;20456;-77
2022/05/07 09:28:02;;;;;;;0.77;0.77;;;22.90;51.70;;;;;;4994034;28;20508;-77
2022/05/07 09:30:30;;;;;;;0.90;0.90;;;22.80;51.70;;;;;;4994021;28;20464;-77
2022/05/07 09:32:58;;;;;;;0.93;0.80;;;22.80;52.50;;;;;;4994043;28;20552;-76
2022/05/07 09:38:12;;;;;;;0.80;0.80;;;22.60;49.60;;;;;;4993713;28;20488;-75
2022/05/07 09:40:39;;;;;;;2.10;0.80;;;22.40;50.90;;;;;;4993924;28;20476;-74
2022/05/07 09:43:10;;;;;;;0.80;0.80;;;22.40;49.90;;;;;;4993938;28;20453;-73
2022/05/07 09:45:38;;;;;;;0.70;0.70;;;22.30;49.60;;;;;;4996226;28;20441;-74
2022/05/07 09:48:06;;;;;;;0.70;0.63;;;22.00;51.10;;;;;;4998573;28;20465;-72
2022/05/07 09:50:45;;;;;;;0.70;0.70;;;21.80;50.60;;;;;;4998999;28;20449;-76
2022/05/07 09:58:45;;;;;;;0.90;0.70;;;21.50;50.10;;;;;;4997499;28;20919;-75
2022/05/07 10:01:32;;;;;;;0.70;0.60;;;21.70;50.00;;;;;;4997613;28;20488;-75
2022/05/07 10:04:22;;;;;;;0.70;0.60;;;21.70;49.20;;;;;;4997637;28;20421;-75
2022/05/07 10:07:03;;;;;;;0.70;0.70;;;21.80;49.70;;;;;;4997579;28;20469;-75
2022/05/07 10:09:41;;;;;;;0.70;0.60;;;21.80;47.50;;;;;;4997584;28;20437;-75
2022/05/07 10:12:09;;;;;;;0.70;0.60;;;21.60;47.80;;;;;;4997570;28;20827;-76
2022/05/07 10:14:37;;;;;;;0.80;0.70;;;21.80;48.50;;;;;;4997662;28;20523;-75
2022/05/07 10:17:11;;;;;;;0.60;0.50;;;21.80;47.20;;;;;;4996907;28;21000;-76
2022/05/07 10:19:39;;;;;;;0.70;0.70;;;22.00;47.20;;;;;;4997383;28;20425;-75
2022/05/07 10:22:17;;;;;;;0.70;0.63;;;21.90;45.60;;;;;;4997285;28;20567;-75
2022/05/07 10:24:45;;;;;;;0.63;0.57;;;21.80;46.60;;;;;;4996930;28;20949;-75
2022/05/07 10:27:22;;;;;;;0.63;0.50;;;21.70;47.60;;;;;;4997119;28;20523;-74
2022/05/07 10:29:51;;;;;;;0.60;0.60;;;22.00;49.00;;;;;;4997140;28;20535;-75
2022/05/07 10:32:19;;;;;;;0.60;0.60;;;22.30;47.90;;;;;;4997147;28;20433;-74
2022/05/07 10:34:53;;;;;;;0.67;0.60;;;22.60;44.50;;;;;;4997072;28;20484;-73
2022/05/07 10:37:20;;;;;;;0.63;0.60;;;22.60;44.10;;;;;;4996913;28;20480;-74
2022/05/07 10:39:52;;;;;;;0.70;0.70;;;22.70;45.60;;;;;;4996972;28;20453;-73
2022/05/07 10:42:21;;;;;;;0.70;0.60;;;23.00;45.40;;;;;;4996558;28;20995;-72
2022/05/07 10:44:49;;;;;;;0.70;0.60;;;22.90;45.60;;;;;;4996945;28;20454;-74
2022/05/07 10:47:19;;;;;;;0.70;0.70;;;23.20;45.60;;;;;;4997907;28;20465;-76
2022/05/07 10:49:56;;;;;;;0.60;0.60;;;23.30;45.40;;;;;;4997928;28;20453;-72
2022/05/07 10:52:34;;;;;;;0.70;0.70;;;23.30;45.50;;;;;;4997120;28;20452;-72
2022/05/07 10:55:13;;;;;;;0.70;0.60;;;23.20;45.90;;;;;;4996717;28;20430;-72
2022/05/07 10:57:45;;;;;;;0.70;0.60;;;23.30;45.60;;;;;;4995660;28;20535;-72
2022/05/07 11:00:17;;;;;;;0.80;0.60;;;23.20;45.20;;;;;;4996215;28;20933;-71
2022/05/07 11:02:48;;;;;;;0.80;0.60;;;23.10;44.30;;;;;;4997352;28;20937;-71
2022/05/07 11:05:15;;;;;;;0.60;0.60;;;23.00;44.30;;;;;;5004669;28;20433;-72
2022/05/07 11:07:43;;;;;;;0.90;0.80;;;22.80;45.10;;;;;;5005143;28;20465;-71
2022/05/07 11:10:11;;;;;;;0.80;0.73;;;22.50;46.20;;;;;;5004902;28;20801;-71
2022/05/07 11:12:39;;;;;;;0.70;0.63;;;22.50;47.30;;;;;;5003410;28;20945;-73
2022/05/07 11:15:07;;;;;;;0.80;0.60;;;22.50;46.20;;;;;;5003973;28;20449;-72
2022/05/07 11:17:35;;;;;;;0.70;0.60;;;22.60;46.50;;;;;;5002476;28;20481;-71
2022/05/07 11:20:05;;;;;;;0.70;0.60;;;22.70;46.90;;;;;;5006138;28;20453;-77
2022/05/07 11:22:31;;;;;;;0.63;0.60;;;22.70;46.50;;;;;;5005521;28;20481;-77
2022/05/07 11:25:00;;;;;;;0.70;0.60;;;22.90;46.20;;;;;;5006458;28;20452;-77
2022/05/07 11:27:32;;;;;;;0.67;0.60;;;22.70;47.00;;;;;;5006696;28;21096;-77
2022/05/07 11:29:59;;;;;;;0.70;0.70;;;22.40;46.20;;;;;;5006766;28;20514;-78
2022/05/07 11:32:36;;;;;;;0.70;0.60;;;22.40;46.40;;;;;;5006840;28;20888;-76
2022/05/07 11:35:04;;;;;;;0.80;0.67;;;22.30;48.20;;;;;;5006355;28;20433;-77
2022/05/07 11:37:39;;;;;;;0.90;0.67;;;22.50;47.90;;;;;;5005155;28;20531;-78
2022/05/07 11:40:06;;;;;;;0.70;0.60;;;23.00;45.80;;;;;;5005451;28;20488;-77
2022/05/07 11:42:35;;;;;;;0.70;0.70;;;23.20;46.50;;;;;;5005249;28;20484;-78
2022/05/07 11:47:58;;;;;;;0.70;0.60;;;22.90;45.90;;;;;;5004322;28;20979;-77
2022/05/07 11:50:28;;;;;;;0.60;0.60;;;22.60;48.70;;;;;;5004642;28;20468;-76
2022/05/07 11:52:55;;;;;;;0.70;0.60;;;22.60;48.10;;;;;;5004357;28;20829;-78
2022/05/07 11:55:28;;;;;;;0.70;0.60;;;22.50;48.00;;;;;;5005044;28;20457;-77
2022/05/07 11:57:55;;;;;;;0.60;0.50;;;22.10;47.90;;;;;;5005038;28;20469;-78
2022/05/07 12:00:24;;;;;;;0.70;0.60;;;22.20;48.80;;;;;;5004853;28;20453;-77
2022/05/07 12:02:56;;;;;;;0.70;0.60;;;22.00;47.40;;;;;;5005388;28;20449;-77
2022/05/07 12:05:24;;;;;;;0.80;0.60;;;22.00;49.00;;;;;;5005134;28;20449;-77
2022/05/07 12:07:53;;;;;;;0.90;0.60;;;21.60;47.90;;;;;;5004649;28;20473;-77
2022/05/07 12:10:22;;;;;;;1.27;0.60;;;21.50;48.50;;;;;;5004166;28;20932;-78
2022/05/07 12:12:49;;;;;;;0.70;0.60;;;21.80;48.00;;;;;;5003826;28;20933;-78
2022/05/07 12:17:51;;;;;;;0.60;0.60;;;22.00;48.10;;;;;;4999944;28;20863;-77
2022/05/07 12:18:03;;;;;;;0.70;0.60;;;22.00;46.90;;;;;;4994739;28;20481;-79
2022/05/07 12:20:30;;;;;;;0.67;0.60;;;21.80;46.50;;;;;;4995695;28;20465;-78
2022/05/07 12:31:10;;;;;;;0.70;0.60;;;22.10;47.20;;;;;;4994963;28;20842;-78
2022/05/07 12:33:37;;;;;;;0.70;0.60;;;22.30;47.40;;;;;;4994656;28;20940;-78
2022/05/07 12:36:04;;;;;;;0.60;0.60;;;22.70;46.90;;;;;;4994868;28;20577;-78
2022/05/07 12:38:32;;;;;;;0.70;0.63;;;23.10;45.60;;;;;;4994515;28;20897;-78
2022/05/07 12:40:59;;;;;;;0.70;0.60;;;23.30;46.40;;;;;;4994659;28;20477;-78
2022/05/07 12:43:26;;;;;;;0.60;0.60;;;23.30;45.90;;;;;;4994564;28;20453;-79
2022/05/07 12:45:53;;;;;;;0.60;0.50;;;23.40;44.90;;;;;;4994671;28;20477;-78
2022/05/07 12:48:20;;;;;;;0.70;0.67;;;23.40;44.70;;;;;;4994548;28;20556;-78
2022/05/07 12:50:47;;;;;;;0.60;0.53;;;23.30;43.60;;;;;;4994479;28;20527;-77
2022/05/07 12:53:15;;;;;;;0.70;0.60;;;23.30;45.80;;;;;;4994516;28;20495;-78
2022/05/07 12:55:43;;;;;;;0.77;0.60;;;23.20;43.70;;;;;;4995038;28;20456;-77
2022/05/07 12:58:11;;;;;;;0.60;0.60;;;23.20;43.90;;;;;;4994472;28;20472;-78
2022/05/07 13:00:38;;;;;;;0.70;0.60;;;23.20;44.00;;;;;;4994738;28;20535;-79
2022/05/07 13:03:05;;;;;;;0.60;0.60;;;23.40;44.20;;;;;;4994716;28;20493;-79
2022/05/07 13:05:33;;;;;;;0.63;0.60;;;23.50;44.40;;;;;;4994439;28;20453;-79
2022/05/07 13:08:00;;;;;;;0.70;0.60;;;23.80;42.50;;;;;;4994361;28;20468;-78
2022/05/07 13:10:27;;;;;;;0.60;0.60;;;23.80;42.10;;;;;;4994276;28;21006;-78
2022/05/07 13:12:55;;;;;;;0.80;0.70;;;23.50;42.40;;;;;;4998733;28;20449;-78
2022/05/07 13:15:22;;;;;;;0.63;0.60;;;23.90;42.30;;;;;;5003517;28;20484;-78
2022/05/07 13:17:48;;;;;;;0.63;0.60;;;24.20;43.60;;;;;;5004628;28;20965;-79
2022/05/07 13:20:15;;;;;;;0.60;0.60;;;24.40;44.40;;;;;;5005248;28;20456;-78
2022/05/07 13:22:42;;;;;;;0.70;0.60;;;24.70;44.60;;;;;;5004682;28;20489;-78
2022/05/07 13:25:09;;;;;;;1.00;0.67;;;24.80;42.50;;;;;;5004342;28;20457;-78
2022/05/07 13:27:36;;;;;;;0.70;0.60;;;24.90;42.70;;;;;;5003304;28;20480;-78
2022/05/07 13:30:04;;;;;;;0.70;0.70;;;24.80;42.20;;;;;;5004300;28;20549;-78
2022/05/07 13:32:31;;;;;;;0.70;0.60;;;24.60;41.80;;;;;;5004523;28;20453;-78
2022/05/07 13:34:58;;;;;;;0.60;0.60;;;24.50;41.30;;;;;;5003924;28;20446;-78
2022/05/07 13:37:24;;;;;;;0.80;0.70;;;24.40;43.00;;;;;;5002537;28;20469;-78
2022/05/07 13:39:52;;;;;;;0.80;0.70;;;24.40;43.90;;;;;;5003746;28;20460;-78
2022/05/07 13:42:19;;;;;;;0.70;0.60;;;24.30;42.70;;;;;;5004791;28;20988;-78
2022/05/07 13:44:45;;;;;;;0.60;0.50;;;24.50;43.80;;;;;;5004668;28;20488;-78
2022/05/07 13:47:13;;;;;;;0.60;0.50;;;24.60;44.30;;;;;;5003573;28;20976;-78
2022/05/07 13:49:40;;;;;;;0.70;0.60;;;24.80;43.30;;;;;;5002621;28;20841;-78
2022/05/07 13:52:07;;;;;;;0.70;0.60;;;25.00;41.80;;;;;;5002798;28;20949;-78
2022/05/07 13:54:34;;;;;;;0.80;0.60;;;24.70;42.80;;;;;;5004383;28;20850;-78
2022/05/07 13:57:01;;;;;;;0.70;0.60;;;24.80;42.20;;;;;;5001595;28;20469;-78
2022/05/07 13:59:28;;;;;;;0.60;0.60;;;24.80;42.10;;;;;;5002227;28;20508;-78
2022/05/07 14:01:55;;;;;;;0.70;0.60;;;24.90;42.40;;;;;;5003129;28;20571;-78
2022/05/07 14:04:23;;;;;;;0.70;0.60;;;25.00;42.20;;;;;;5003597;28;20484;-78
2022/05/07 14:06:49;;;;;;;0.70;0.60;;;25.00;41.30;;;;;;5005588;28;20465;-78
2022/05/07 14:09:17;;;;;;;0.60;0.60;;;25.10;42.20;;;;;;5006219;28;20460;-78
2022/05/07 14:11:44;;;;;;;0.70;0.60;;;25.20;43.00;;;;;;5003603;28;20867;-78
2022/05/07 14:14:10;;;;;;;0.70;0.60;;;25.30;43.40;;;;;;5001267;28;21003;-79
2022/05/07 14:16:37;;;;;;;0.70;0.60;;;25.20;41.80;;;;;;5002210;28;20481;-78
2022/05/07 14:19:04;;;;;;;0.70;0.60;;;25.10;41.60;;;;;;5001313;28;20429;-78
2022/05/07 14:21:34;;;;;;;0.60;0.60;;;25.10;42.00;;;;;;5001336;28;20489;-78
2022/05/07 14:24:02;;;;;;;0.70;0.60;;;25.20;41.80;;;;;;5001937;28;20413;-79
2022/05/07 14:26:28;;;;;;;0.70;0.60;;;24.90;42.10;;;;;;5002178;28;20504;-78
2022/05/07 14:28:55;;;;;;;0.60;0.50;;;24.30;41.20;;;;;;5002665;28;20456;-78
2022/05/07 14:31:22;;;;;;;0.60;0.57;;;24.50;42.20;;;;;;5002066;28;20457;-78
2022/05/07 14:33:48;;;;;;;0.60;0.50;;;24.60;43.80;;;;;;5005414;28;20452;-78
2022/05/07 14:36:15;;;;;;;0.70;0.60;;;24.80;41.60;;;;;;5005665;28;20449;-78
2022/05/07 14:38:43;;;;;;;0.70;0.70;;;24.90;42.20;;;;;;5004955;28;20975;-78
2022/05/07 14:41:10;;;;;;;0.73;0.60;;;25.10;42.10;;;;;;5005774;28;20463;-78
2022/05/07 14:43:38;;;;;;;0.70;0.60;;;25.30;42.10;;;;;;5006421;28;20565;-79
2022/05/07 14:46:05;;;;;;;0.70;0.60;;;25.50;40.90;;;;;;5005240;28;20459;-78
2022/05/07 14:48:31;;;;;;;0.70;0.60;;;25.50;41.60;;;;;;5004252;28;20468;-79
2022/05/07 14:50:58;;;;;;;0.80;0.60;;;25.80;41.60;;;;;;5008353;28;20437;-78
2022/05/07 14:53:26;;;;;;;0.70;0.63;;;26.00;40.50;;;;;;5005119;28;20445;-79
2022/05/07 14:55:54;;;;;;;0.70;0.53;;;26.00;41.00;;;;;;5008603;28;20456;-78
2022/05/07 14:58:20;;;;;;;0.60;0.60;;;26.10;41.00;;;;;;5005485;28;20508;-78
2022/05/07 15:00:47;;;;;;;0.70;0.60;;;26.10;40.60;;;;;;5005670;28;20957;-78
2022/05/07 15:03:14;;;;;;;0.63;0.60;;;26.20;40.20;;;;;;5006603;28;20646;-79
2022/05/07 15:05:41;;;;;;;0.70;0.60;;;26.30;40.60;;;;;;5005027;28;20485;-79
2022/05/07 15:10:54;;;;;;;1.20;0.53;;;25.30;40.70;;;;;;5006044;28;20444;-78
2022/05/07 15:13:22;;;;;;;0.70;0.60;;;25.10;42.30;;;;;;5005118;28;20449;-78
2022/05/07 15:15:49;;;;;;;0.63;0.53;;;24.80;42.50;;;;;;5008297;28;20450;-78
2022/05/07 15:18:16;;;;;;;0.60;0.50;;;24.70;43.30;;;;;;5103715;23;20516;-70
2022/05/07 15:20:43;;;;;;;1.10;0.70;;;24.40;42.40;;;;;;4995972;28;20467;-69
2022/05/07 15:23:10;;;;;;;0.70;0.63;;;24.20;42.90;;;;;;4995581;28;20995;-70
2022/05/07 15:25:36;;;;;;;0.60;0.60;;;24.30;43.30;;;;;;4996062;28;20516;-69
2022/05/07 15:28:05;;;;;;;0.70;0.60;;;24.20;44.00;;;;;;4995916;28;20836;-69
2022/05/07 15:30:31;;;;;;;0.70;0.60;;;23.90;44.20;;;;;;4995867;28;20445;-68
2022/05/07 15:38:26;;;;;;;0.70;0.70;;;23.90;44.80;;;;;;4995495;28;20799;-70
2022/05/07 15:40:53;;;;;;;0.67;0.60;;;23.90;44.50;;;;;;4995464;28;20454;-68
2022/05/07 15:43:21;;;;;;;0.70;0.60;;;23.80;45.10;;;;;;4995026;28;20552;-68
2022/05/07 15:45:49;;;;;;;0.70;0.70;;;23.90;44.70;;;;;;4995202;28;20845;-70
2022/05/07 15:48:15;;;;;;;0.70;0.60;;;24.10;45.40;;;;;;4995340;28;20473;-70
2022/05/07 15:50:42;;;;;;;0.80;0.60;;;24.20;45.00;;;;;;4995350;28;20453;-69
2022/05/07 15:53:09;;;;;;;0.70;0.70;;;24.30;45.20;;;;;;4994959;28;20965;-68
2022/05/07 15:55:36;;;;;;;0.67;0.60;;;24.30;45.40;;;;;;4995339;28;20872;-68
2022/05/07 15:58:03;;;;;;;0.70;0.60;;;24.40;44.50;;;;;;4995018;28;20892;-70
2022/05/07 16:00:31;;;;;;;0.70;0.60;;;24.50;44.20;;;;;;4995234;28;20499;-70
2022/05/07 16:02:58;;;;;;;0.70;0.60;;;24.50;44.10;;;;;;4995212;28;20485;-69
2022/05/07 16:05:25;;;;;;;0.70;0.60;;;24.70;45.00;;;;;;4994870;28;20938;-70
2022/05/07 16:07:52;;;;;;;0.60;0.60;;;24.40;45.00;;;;;;4995050;28;20468;-69
2022/05/07 16:10:19;;;;;;;0.83;0.70;;;24.20;45.20;;;;;;4995159;28;20449;-70
2022/05/07 16:12:45;;;;;;;1.03;0.67;;;23.90;45.30;;;;;;4995085;28;20495;-69
2022/05/07 16:15:12;;;;;;;0.70;0.70;;;23.70;45.60;;;;;;4994823;28;20449;-70
2022/05/07 16:17:40;;;;;;;0.70;0.60;;;23.60;46.10;;;;;;4994333;28;20570;-70
2022/05/07 16:20:08;;;;;;;0.70;0.70;;;23.60;46.30;;;;;;4994405;28;20956;-68
2022/05/07 16:25:19;;;;;;;0.60;0.60;;;23.30;46.70;;;;;;4994661;28;20488;-69
2022/05/07 16:27:45;;;;;;;0.60;0.60;;;23.40;46.40;;;;;;4994306;28;20984;-69
2022/05/07 16:30:12;;;;;;;0.80;0.70;;;23.40;46.50;;;;;;4994196;28;20523;-68
2022/05/07 16:32:40;;;;;;;0.67;0.60;;;23.40;46.70;;;;;;4994514;28;20445;-69
2022/05/07 16:35:08;;;;;;;0.80;0.70;;;23.40;46.10;;;;;;4994378;28;20449;-68
2022/05/07 16:37:35;;;;;;;0.80;0.70;;;23.20;46.10;;;;;;4994293;28;20472;-68